Time;durP1;ratioP1;P1;durP2;ratioP2;P2;SDS_P1;SDS_P2;PMS_P1;PMS_P2;Temp;Humidity;BMP_temperature;BMP_pressure;BME280_temperature;BME280_humidity;BME280_pressure;Samples;Min_cycle;Max_cycle;Signal;HPM_P1;HPM_P2
2023/08/24 00:00:42;;;;;;;16.60;9.98;;;;;;;24.72;49.03;99304.72;5013615;28;20500;-83
2023/08/24 00:03:08;;;;;;;15.90;10.32;;;;;;;24.61;49.73;99301.25;5013840;28;20466;-83
2023/08/24 00:05:37;;;;;;;10.00;8.98;;;;;;;24.48;50.63;99313.31;5015765;28;20075;-83
2023/08/24 00:08:07;;;;;;;13.30;10.25;;;;;;;24.39;51.25;99313.09;5015881;28;20020;-84
2023/08/24 00:10:34;;;;;;;12.43;9.60;;;;;;;24.34;52.01;99310.72;5016337;28;20483;-84
2023/08/24 00:12:59;;;;;;;11.52;10.27;;;;;;;24.21;52.95;99314.19;5009103;28;20577;-83
2023/08/24 00:15:25;;;;;;;23.92;9.98;;;;;;;24.15;53.58;99304.50;5007922;28;20025;-83
2023/08/24 00:17:50;;;;;;;14.95;10.15;;;;;;;24.20;54.41;99317.50;5008897;28;20054;-83
2023/08/24 00:20:16;;;;;;;12.43;10.25;;;;;;;24.21;55.17;99308.47;5010774;28;20084;-83
2023/08/24 00:22:41;;;;;;;15.32;10.20;;;;;;;24.37;54.66;99309.84;5013357;28;20164;-83
2023/08/24 00:25:08;;;;;;;16.85;9.88;;;;;;;24.30;54.62;99285.06;5012647;28;20056;-83
2023/08/24 00:27:35;;;;;;;13.88;9.70;;;;;;;24.49;53.99;99302.72;5012462;28;20055;-82
2023/08/24 00:30:01;;;;;;;32.17;11.38;;;;;;;24.44;54.04;99291.78;5003109;28;20115;-82
2023/08/24 00:32:27;;;;;;;12.30;10.18;;;;;;;24.65;53.68;99302.03;5003772;28;20546;-84
2023/08/24 00:34:53;;;;;;;13.27;9.93;;;;;;;24.33;54.13;99301.34;5011534;28;20116;-83
2023/08/24 00:37:18;;;;;;;11.25;10.05;;;;;;;24.21;54.50;99301.97;5033222;28;20100;-83
2023/08/24 00:39:43;;;;;;;19.70;10.13;;;;;;;24.11;53.82;99284.56;5012951;28;20029;-83
2023/08/24 00:42:14;;;;;;;16.73;10.05;;;;;;;24.16;53.25;99311.81;5033310;28;20044;-84
2023/08/24 00:44:40;;;;;;;16.58;10.35;;;;;;;24.05;53.28;99294.03;5012441;28;20645;-83
2023/08/24 00:47:07;;;;;;;11.77;9.57;;;;;;;24.00;53.18;99291.63;5003367;28;20046;-83
2023/08/24 00:49:32;;;;;;;15.18;9.70;;;;;;;24.06;53.00;99313.59;5026271;28;20095;-83
2023/08/24 00:51:58;;;;;;;15.82;10.52;;;;;;;23.93;53.34;99303.97;5012479;28;20456;-84
2023/08/24 00:54:25;;;;;;;13.20;10.00;;;;;;;24.00;53.37;99317.34;5015368;28;20044;-83
2023/08/24 00:56:50;;;;;;;17.20;11.32;;;;;;;23.80;54.09;99300.91;5012496;28;20034;-83
2023/08/24 00:59:16;;;;;;;17.77;11.05;;;;;;;23.83;53.99;99298.03;5010582;28;20040;-84
2023/08/24 01:01:45;;;;;;;10.82;9.65;;;;;;;23.83;53.63;99295.16;5015159;28;20021;-83
2023/08/24 01:04:11;;;;;;;18.52;10.38;;;;;;;23.98;53.65;99301.44;5013635;28;20041;-84
2023/08/24 01:06:37;;;;;;;13.20;10.40;;;;;;;23.88;53.31;99296.69;5014871;28;20025;-83
2023/08/24 01:09:03;;;;;;;15.88;10.30;;;;;;;23.86;53.67;99299.19;5009708;28;20034;-83
2023/08/24 01:11:37;;;;;;;12.00;9.63;;;;;;;23.73;54.01;99284.69;5011794;28;20119;-83
2023/08/24 01:14:27;;;;;;;17.23;11.43;;;;;;;23.59;54.49;99273.47;5012150;28;20527;-84
2023/08/24 01:16:58;;;;;;;17.77;10.23;;;;;;;23.50;54.28;99271.16;5031070;28;20083;-83
2023/08/24 01:19:44;;;;;;;13.07;10.43;;;;;;;23.51;54.61;99289.88;5013637;28;20037;-83
2023/08/24 01:22:28;;;;;;;12.70;10.07;;;;;;;23.33;55.35;99301.53;4991136;28;20030;-84
2023/08/24 01:25:05;;;;;;;14.25;11.32;;;;;;;23.09;56.33;99299.34;5014848;28;20037;-83
2023/08/24 01:27:34;;;;;;;12.60;10.07;;;;;;;23.07;57.46;99293.28;5030905;28;20026;-83
2023/08/24 01:30:02;;;;;;;13.00;11.60;;;;;;;23.03;58.10;99288.84;5032084;28;20035;-83
2023/08/24 01:32:30;;;;;;;13.10;11.13;;;;;;;23.07;58.35;99283.91;5030969;28;20037;-83
2023/08/24 01:34:56;;;;;;;17.55;10.80;;;;;;;23.01;58.23;99272.13;5013825;28;20045;-83
2023/08/24 01:37:21;;;;;;;11.95;10.65;;;;;;;22.86;59.11;99265.78;5029999;28;20061;-83
2023/08/24 01:40:00;;;;;;;16.65;10.88;;;;;;;22.90;59.23;99280.00;5007462;28;20029;-83
2023/08/24 01:42:31;;;;;;;14.43;11.43;;;;;;;22.87;60.02;99278.84;5011001;28;20468;-83
2023/08/24 01:45:01;;;;;;;14.95;10.85;;;;;;;22.85;60.00;99273.53;5013127;28;20455;-83
2023/08/24 01:47:28;;;;;;;12.63;10.82;;;;;;;22.74;60.51;99267.16;5018028;28;20056;-83
2023/08/24 01:49:54;;;;;;;13.48;11.55;;;;;;;22.63;60.96;99272.16;4994511;28;20550;-83
2023/08/24 01:52:21;;;;;;;14.98;11.15;;;;;;;22.83;60.69;99293.13;4994544;28;20037;-84
2023/08/24 01:54:47;;;;;;;14.65;12.00;;;;;;;22.85;61.10;99295.53;4988887;28;20476;-84
2023/08/24 01:57:13;;;;;;;13.98;11.48;;;;;;;22.64;61.95;99273.78;4996502;28;20030;-84
2023/08/24 01:59:38;;;;;;;16.35;11.82;;;;;;;22.74;61.67;99267.16;4995905;28;20037;-84
2023/08/24 02:02:04;;;;;;;13.13;11.73;;;;;;;22.75;61.72;99257.38;4993669;28;20413;-82
2023/08/24 02:04:29;;;;;;;19.02;11.32;;;;;;;22.85;61.64;99279.25;4994434;28;20026;-83
2023/08/24 02:06:55;;;;;;;15.02;11.80;;;;;;;22.86;62.41;99282.91;5011838;28;20531;-83
2023/08/24 02:09:20;;;;;;;14.20;11.93;;;;;;;22.64;63.05;99271.75;4994228;28;20032;-83
2023/08/24 02:11:46;;;;;;;14.00;11.45;;;;;;;22.51;63.41;99279.22;4988849;28;20037;-83
2023/08/24 02:14:11;;;;;;;13.70;11.48;;;;;;;22.44;63.76;99277.19;4977101;28;20029;-84
2023/08/24 02:16:37;;;;;;;15.40;11.23;;;;;;;22.36;63.07;99250.78;5011108;28;20493;-83
2023/08/24 02:19:02;;;;;;;18.35;11.15;;;;;;;22.54;62.67;99275.50;5013836;28;20116;-83
2023/08/24 02:21:27;;;;;;;18.10;12.02;;;;;;;22.54;62.67;99282.00;4994039;28;20032;-83
2023/08/24 02:23:53;;;;;;;13.90;11.65;;;;;;;22.40;63.12;99265.00;4994144;28;20026;-83
2023/08/24 02:26:20;;;;;;;16.35;11.80;;;;;;;22.37;62.96;99251.63;4994114;28;20037;-83
2023/08/24 02:28:45;;;;;;;14.30;10.63;;;;;;;22.54;62.61;99276.28;5005847;28;20022;-83
2023/08/24 02:31:11;;;;;;;19.70;13.23;;;;;;;22.47;62.61;99282.06;4976966;28;20562;-83
2023/08/24 02:33:36;;;;;;;16.05;12.45;;;;;;;22.42;62.95;99265.41;5008718;28;20030;-83
2023/08/24 02:36:02;;;;;;;24.33;13.35;;;;;;;22.33;63.23;99259.41;5031373;28;20022;-83
2023/08/24 02:38:27;;;;;;;20.63;12.40;;;;;;;22.48;63.12;99278.00;5013095;28;20049;-84
2023/08/24 02:41:07;;;;;;;14.00;11.25;;;;;;;22.52;63.33;99272.28;5009352;28;20025;-83
2023/08/24 02:43:33;;;;;;;13.30;11.50;;;;;;;22.34;63.70;99272.41;4992763;28;20045;-83
2023/08/24 02:46:03;;;;;;;13.30;10.95;;;;;;;22.26;64.02;99283.84;4996451;28;20118;-84
2023/08/24 02:48:29;;;;;;;22.33;12.23;;;;;;;22.26;64.17;99275.31;4989842;28;20049;-84
2023/08/24 02:50:54;;;;;;;18.98;11.65;;;;;;;22.08;64.53;99271.78;4993736;28;20030;-83
2023/08/24 02:53:20;;;;;;;34.47;12.77;;;;;;;22.09;64.56;99279.13;5006275;28;20036;-83
2023/08/24 02:55:45;;;;;;;24.60;12.45;;;;;;;22.05;64.64;99282.00;5013358;28;20081;-83
2023/08/24 02:58:11;;;;;;;33.85;14.43;;;;;;;22.04;64.19;99279.56;4979504;28;20105;-84
2023/08/24 03:00:39;;;;;;;41.15;13.13;;;;;;;22.06;63.78;99274.25;5006755;28;20030;-84
2023/08/24 03:03:05;;;;;;;32.75;13.85;;;;;;;22.23;62.92;99284.69;5000635;28;20449;-83
2023/08/24 03:05:32;;;;;;;22.23;13.68;;;;;;;22.37;62.08;99294.34;4993787;28;20064;-83
2023/08/24 03:07:58;;;;;;;23.98;14.02;;;;;;;22.33;61.67;99293.59;4992112;28;20109;-83
2023/08/24 03:10:24;;;;;;;25.27;13.20;;;;;;;22.19;62.41;99291.66;4993557;28;20021;-83
2023/08/24 03:12:49;;;;;;;20.15;12.60;;;;;;;22.09;62.39;99301.91;4993489;28;20026;-84
2023/08/24 03:15:15;;;;;;;26.00;12.60;;;;;;;22.16;62.18;99296.97;4992170;28;20034;-84
2023/08/24 03:17:41;;;;;;;33.88;14.23;;;;;;;22.12;61.86;99306.75;5009640;28;20104;-84
2023/08/24 03:20:07;;;;;;;21.35;13.88;;;;;;;22.21;61.60;99301.41;4991294;28;20497;-84
2023/08/24 03:22:32;;;;;;;20.40;13.27;;;;;;;22.28;61.31;99304.19;5010145;28;20108;-83
2023/08/24 03:24:58;;;;;;;24.15;13.13;;;;;;;22.26;61.03;99286.69;4997178;28;20083;-83
2023/08/24 03:27:23;;;;;;;38.92;13.73;;;;;;;22.20;60.82;99290.44;4997324;28;20025;-84
2023/08/24 03:29:49;;;;;;;105.07;17.02;;;;;;;22.29;60.91;99305.00;4994433;28;20531;-84
2023/08/24 03:32:14;;;;;;;25.40;13.98;;;;;;;22.20;61.11;99301.81;5001829;28;20413;-83
2023/08/24 03:34:40;;;;;;;72.15;14.98;;;;;;;22.09;60.37;99281.97;5013714;28;20034;-83
2023/08/24 03:37:05;;;;;;;26.65;13.32;;;;;;;22.25;60.29;99299.31;4988482;28;20030;-84
2023/08/24 03:39:31;;;;;;;31.00;14.50;;;;;;;22.15;60.59;99301.03;4987701;28;20030;-83
2023/08/24 03:41:56;;;;;;;15.13;11.70;;;;;;;22.15;60.32;99305.91;5004449;28;20075;-83
2023/08/24 03:44:22;;;;;;;23.98;11.75;;;;;;;22.20;60.52;99308.31;5016631;28;20025;-83
2023/08/24 03:46:47;;;;;;;31.38;13.40;;;;;;;22.32;60.17;99311.88;5012689;28;20482;-83
2023/08/24 03:49:13;;;;;;;24.05;12.75;;;;;;;22.41;59.69;99309.38;5014007;28;20025;-83
2023/08/24 03:51:38;;;;;;;25.42;12.77;;;;;;;22.51;59.64;99308.50;5015791;28;20397;-83
2023/08/24 03:54:05;;;;;;;16.55;10.85;;;;;;;22.70;58.96;99312.00;5012444;28;20389;-83
2023/08/24 03:56:31;;;;;;;32.15;13.55;;;;;;;22.80;58.44;99308.19;5015566;28;20037;-83
2023/08/24 03:58:56;;;;;;;24.17;12.30;;;;;;;22.65;58.84;99310.41;5014706;28;20079;-83
2023/08/24 04:01:22;;;;;;;20.73;12.50;;;;;;;22.61;58.83;99314.53;5031662;28;20101;-83
2023/08/24 04:03:48;;;;;;;24.73;12.98;;;;;;;22.73;58.72;99322.53;5015349;28;20435;-83
2023/08/24 04:06:13;;;;;;;28.52;12.20;;;;;;;22.68;58.92;99315.25;5032391;28;20029;-83
2023/08/24 04:08:39;;;;;;;28.75;12.07;;;;;;;22.73;58.67;99322.53;5015915;28;20134;-83
2023/08/24 04:11:04;;;;;;;20.70;10.50;;;;;;;22.67;58.32;99321.38;5013960;28;20032;-83
2023/08/24 04:13:30;;;;;;;12.63;10.93;;;;;;;22.44;58.49;99311.38;5033918;28;20029;-82
2023/08/24 04:15:55;;;;;;;24.42;12.68;;;;;;;22.48;58.21;99312.19;5016009;28;20017;-83
2023/08/24 04:18:21;;;;;;;22.67;12.07;;;;;;;22.43;58.13;99307.72;5032283;28;20021;-82
2023/08/24 04:20:46;;;;;;;17.70;10.95;;;;;;;22.52;58.06;99307.25;5008862;28;20029;-83
2023/08/24 04:23:13;;;;;;;18.20;11.85;;;;;;;22.47;58.02;99316.25;5032987;28;20022;-83
2023/08/24 04:25:40;;;;;;;19.15;11.85;;;;;;;22.36;58.81;99333.41;5015765;28;20408;-82
2023/08/24 04:28:05;;;;;;;14.40;11.40;;;;;;;22.20;59.07;99336.78;5007221;28;20481;-83
2023/08/24 04:30:31;;;;;;;15.10;11.30;;;;;;;22.17;59.06;99323.38;5028023;28;20036;-83
2023/08/24 04:32:56;;;;;;;22.35;11.23;;;;;;;22.17;59.06;99314.84;5015644;28;20032;-84
2023/08/24 04:35:25;;;;;;;20.42;10.90;;;;;;;22.42;59.03;99348.03;5033367;28;20552;-84
2023/08/24 04:37:51;;;;;;;27.92;12.13;;;;;;;22.35;58.89;99326.09;5013106;28;20569;-83
2023/08/24 04:40:16;;;;;;;17.92;12.20;;;;;;;22.40;58.68;99344.78;5015217;28;20029;-83
2023/08/24 04:42:42;;;;;;;24.80;12.00;;;;;;;22.41;59.44;99349.25;5015134;28;20465;-83
2023/08/24 04:45:07;;;;;;;23.92;11.07;;;;;;;22.16;60.26;99347.41;5007157;28;20053;-83
2023/08/24 04:47:33;;;;;;;21.58;11.75;;;;;;;22.15;60.43;99351.47;4998854;28;20031;-83
2023/08/24 04:49:58;;;;;;;16.73;10.55;;;;;;;22.22;60.44;99347.78;5015007;28;20041;-83
2023/08/24 04:52:24;;;;;;;25.38;12.55;;;;;;;22.36;60.62;99344.00;5015226;28;20026;-83
2023/08/24 04:54:49;;;;;;;24.42;12.70;;;;;;;22.49;60.01;99332.94;5013863;28;20116;-84
2023/08/24 04:57:16;;;;;;;23.45;12.73;;;;;;;22.58;60.16;99336.13;5014405;28;20067;-83
2023/08/24 04:59:41;;;;;;;29.08;13.25;;;;;;;22.78;59.79;99335.53;5016106;28;20123;-83
2023/08/24 05:02:07;;;;;;;21.33;11.52;;;;;;;22.89;59.42;99336.25;5007123;28;20492;-83
2023/08/24 05:04:33;;;;;;;23.38;12.65;;;;;;;22.99;59.07;99343.88;5015026;28;20509;-83
2023/08/24 05:06:58;;;;;;;14.70;11.07;;;;;;;23.16;58.41;99344.09;5014526;28;20133;-83
2023/08/24 05:09:24;;;;;;;18.92;10.98;;;;;;;23.33;58.05;99348.00;5013466;28;20047;-83
2023/08/24 05:11:49;;;;;;;18.92;13.13;;;;;;;23.47;57.33;99351.91;5013062;28;20110;-83
2023/08/24 05:14:15;;;;;;;15.48;11.40;;;;;;;23.45;56.75;99338.06;5014274;28;20025;-83
2023/08/24 05:16:40;;;;;;;21.30;11.88;;;;;;;23.47;56.74;99329.91;5014042;28;20060;-83
2023/08/24 05:19:06;;;;;;;16.40;12.25;;;;;;;23.62;56.42;99358.25;5013469;28;20416;-83
2023/08/24 05:21:31;;;;;;;18.00;11.02;;;;;;;23.67;56.66;99355.75;5014796;28;20037;-83
2023/08/24 05:23:57;;;;;;;29.23;13.32;;;;;;;23.81;56.43;99351.06;5014506;28;20492;-82
2023/08/24 05:26:24;;;;;;;20.30;12.15;;;;;;;23.88;55.74;99353.81;5011150;28;20187;-82
2023/08/24 05:28:50;;;;;;;38.15;14.43;;;;;;;23.99;55.65;99353.69;5011839;28;20017;-83
2023/08/24 05:31:15;;;;;;;28.83;13.88;;;;;;;24.02;56.08;99354.88;5010956;28;20037;-83
2023/08/24 05:33:41;;;;;;;31.38;12.45;;;;;;;24.07;55.93;99362.97;5014066;28;20090;-84
2023/08/24 05:36:06;;;;;;;25.17;12.45;;;;;;;24.10;55.75;99357.22;4997979;28;20033;-83
2023/08/24 05:38:32;;;;;;;28.90;12.40;;;;;;;24.24;55.38;99369.66;5003717;28;20033;-84
2023/08/24 05:40:57;;;;;;;30.77;12.90;;;;;;;24.20;55.14;99360.34;5028151;28;20056;-84
2023/08/24 05:43:23;;;;;;;23.10;11.80;;;;;;;24.20;54.06;99364.00;4995598;28;20054;-83
2023/08/24 05:45:48;;;;;;;15.93;12.18;;;;;;;24.14;53.54;99364.91;4993985;28;20032;-83
2023/08/24 05:48:14;;;;;;;22.98;14.52;;;;;;;24.30;53.39;99362.19;5004901;28;20116;-84
2023/08/24 05:50:44;;;;;;;23.67;12.90;;;;;;;24.33;52.90;99349.09;5010979;28;20514;-84
2023/08/24 05:53:10;;;;;;;30.88;12.23;;;;;;;24.41;54.14;99350.63;5010065;28;20029;-81
2023/08/24 05:55:35;;;;;;;17.50;10.65;;;;;;;24.45;54.03;99345.63;5013828;28;20025;-82
2023/08/24 05:58:01;;;;;;;24.58;11.43;;;;;;;24.47;53.82;99346.00;5007212;28;20029;-82
2023/08/24 06:00:26;;;;;;;25.30;12.38;;;;;;;24.52;54.25;99361.84;5003033;28;20616;-81
2023/08/24 06:02:52;;;;;;;25.42;11.20;;;;;;;24.47;53.52;99354.59;5010513;28;20025;-83
2023/08/24 06:05:17;;;;;;;17.33;10.18;;;;;;;24.55;53.79;99355.28;5010608;28;20128;-82
2023/08/24 06:07:44;;;;;;;34.50;18.08;;;;;;;24.64;53.91;99363.31;5011454;28;20026;-81
2023/08/24 06:10:10;;;;;;;24.63;12.73;;;;;;;24.66;53.51;99352.25;5000089;28;20057;-81
2023/08/24 06:12:35;;;;;;;16.98;11.27;;;;;;;24.58;53.00;99359.31;5011676;28;20030;-85
2023/08/24 06:15:03;;;;;;;20.92;11.88;;;;;;;24.53;53.42;99364.28;5014048;28;20459;-84
2023/08/24 06:17:29;;;;;;;24.42;12.30;;;;;;;24.48;53.64;99356.19;5007282;28;20045;-82
2023/08/24 06:19:54;;;;;;;19.38;11.80;;;;;;;24.50;53.42;99348.03;5013364;28;20025;-82
2023/08/24 06:22:20;;;;;;;29.80;11.43;;;;;;;24.53;52.68;99340.59;5013629;28;20021;-81
2023/08/24 06:24:45;;;;;;;12.90;10.10;;;;;;;24.57;52.03;99329.13;5013652;28;20026;-82
2023/08/24 06:27:10;;;;;;;40.50;13.13;;;;;;;24.80;51.79;99342.63;5013197;28;20029;-83
2023/08/24 06:29:36;;;;;;;70.63;13.23;;;;;;;25.13;50.82;99348.53;5013745;28;20032;-84
2023/08/24 06:32:01;;;;;;;28.95;13.18;;;;;;;25.41;50.25;99343.50;5004990;28;20064;-83
2023/08/24 06:34:27;;;;;;;20.23;11.60;;;;;;;25.46;49.09;99342.16;5011568;28;20032;-84
2023/08/24 06:36:53;;;;;;;18.48;11.07;;;;;;;25.74;48.47;99343.63;5010421;28;20033;-84
2023/08/24 06:39:19;;;;;;;15.45;11.35;;;;;;;25.80;48.32;99343.94;5009455;28;20469;-84
2023/08/24 06:41:44;;;;;;;23.55;11.50;;;;;;;25.77;48.49;99344.81;5010731;28;20086;-84
2023/08/24 06:44:10;;;;;;;17.77;10.23;;;;;;;25.91;48.61;99358.81;5022587;28;20049;-83
2023/08/24 06:46:36;;;;;;;23.63;12.45;;;;;;;26.11;47.72;99360.84;4996611;28;20037;-83
2023/08/24 06:49:01;;;;;;;24.65;12.77;;;;;;;26.20;46.87;99374.56;5000388;28;20133;-82
2023/08/24 06:51:28;;;;;;;28.05;13.85;;;;;;;26.34;47.52;99361.97;5007654;28;20112;-84
2023/08/24 06:53:54;;;;;;;29.60;15.45;;;;;;;26.58;47.79;99367.53;5013168;28;20025;-84
2023/08/24 06:56:19;;;;;;;25.42;16.42;;;;;;;26.71;47.93;99371.28;5013847;28;20033;-84
2023/08/24 06:58:45;;;;;;;29.52;14.60;;;;;;;26.50;47.90;99369.78;5015994;28;20060;-82
2023/08/24 07:01:11;;;;;;;25.35;13.63;;;;;;;26.72;46.90;99378.63;5008284;28;20026;-83
2023/08/24 07:03:37;;;;;;;30.77;13.48;;;;;;;26.70;46.39;99375.41;5016866;28;20025;-86
2023/08/24 07:06:06;;;;;;;30.80;11.73;;;;;;;26.80;45.92;99379.25;5010204;28;20037;-83
2023/08/24 07:08:31;;;;;;;27.77;11.98;;;;;;;27.14;45.88;99385.78;5012795;28;20032;-83
2023/08/24 07:10:57;;;;;;;36.72;13.15;;;;;;;27.19;46.03;99379.50;5016909;28;20029;-86
2023/08/24 07:13:23;;;;;;;30.65;13.07;;;;;;;27.39;45.71;99390.84;5009620;28;20117;-82
2023/08/24 07:15:49;;;;;;;32.45;13.35;;;;;;;27.45;45.40;99382.47;5013208;28;20025;-86
2023/08/24 07:18:15;;;;;;;24.73;14.70;;;;;;;27.37;45.68;99387.63;5026071;28;20026;-87
2023/08/24 07:20:40;;;;;;;26.05;13.95;;;;;;;27.33;46.39;99404.94;5020383;28;20033;-84
2023/08/24 07:23:05;;;;;;;35.17;12.55;;;;;;;27.07;45.69;99409.72;5009817;28;20571;-85
2023/08/24 07:25:31;;;;;;;14.35;12.15;;;;;;;27.16;45.68;99429.22;5006134;28;20025;-83
2023/08/24 07:28:00;;;;;;;17.63;10.93;;;;;;;26.96;45.98;99432.97;5013954;28;20124;-83
2023/08/24 07:30:26;;;;;;;24.33;10.70;;;;;;;26.77;47.15;99432.59;5012597;28;20029;-83
2023/08/24 07:32:53;;;;;;;14.32;11.00;;;;;;;26.52;47.81;99403.72;5015610;28;20029;-84
2023/08/24 07:35:20;;;;;;;16.92;10.48;;;;;;;26.60;48.43;99417.44;5008220;28;20037;-83
2023/08/24 07:37:49;;;;;;;19.00;11.55;;;;;;;26.59;49.22;99415.03;5013043;28;20482;-84
2023/08/24 07:40:15;;;;;;;23.90;11.60;;;;;;;26.43;49.54;99405.16;5012677;28;20080;-83
2023/08/24 07:42:50;;;;;;;19.02;11.68;;;;;;;26.24;50.56;99426.09;5026557;28;21203;-82
2023/08/24 07:45:16;;;;;;;23.48;10.48;;;;;;;26.27;50.75;99422.31;5008235;28;20036;-82
2023/08/24 07:47:42;;;;;;;22.52;11.80;;;;;;;26.09;50.49;99412.06;5023306;28;20423;-82
2023/08/24 07:50:08;;;;;;;22.77;11.20;;;;;;;25.96;51.90;99408.25;5007413;28;20500;-82
2023/08/24 07:52:34;;;;;;;17.15;11.20;;;;;;;25.88;52.92;99404.72;4997684;28;20025;-83
2023/08/24 07:55:03;;;;;;;17.40;11.00;;;;;;;25.72;53.92;99400.56;5002555;28;20036;-82
2023/08/24 07:57:28;;;;;;;27.00;11.88;;;;;;;25.72;54.58;99405.50;5011644;28;20037;-82
2023/08/24 07:59:54;;;;;;;19.42;11.68;;;;;;;25.40;57.38;99398.31;5008546;28;20025;-82
2023/08/24 08:02:20;;;;;;;14.52;10.85;;;;;;;25.31;58.40;99401.78;5015524;28;20029;-82
2023/08/24 08:04:46;;;;;;;14.07;10.38;;;;;;;24.94;59.66;99395.91;4999574;28;20099;-82
2023/08/24 08:07:11;;;;;;;11.32;8.70;;;;;;;24.87;59.97;99393.19;5011498;28;20495;-82
2023/08/24 08:09:37;;;;;;;11.40;8.88;;;;;;;24.89;61.23;99393.53;5008193;28;20408;-82
2023/08/24 08:12:03;;;;;;;16.98;10.75;;;;;;;24.99;61.42;99378.25;5010336;28;20079;-83
2023/08/24 08:14:29;;;;;;;31.10;14.20;;;;;;;25.03;62.64;99392.47;5010377;28;20025;-83
2023/08/24 08:16:55;;;;;;;19.92;13.95;;;;;;;24.93;63.97;99379.97;5008560;28;20120;-83
2023/08/24 08:19:21;;;;;;;20.67;10.23;;;;;;;24.84;64.80;99379.72;5006775;28;20095;-83
2023/08/24 08:21:47;;;;;;;14.50;9.95;;;;;;;24.94;65.41;99379.56;5025994;28;20025;-83
2023/08/24 08:24:13;;;;;;;12.65;10.60;;;;;;;24.91;65.51;99365.31;4998809;28;20018;-83
2023/08/24 08:26:38;;;;;;;16.52;10.00;;;;;;;24.95;64.46;99360.31;5006825;28;20025;-84
2023/08/24 08:29:05;;;;;;;20.52;11.48;;;;;;;24.91;63.75;99343.22;5026348;28;20079;-85
2023/08/24 08:31:30;;;;;;;24.65;10.63;;;;;;;25.18;63.71;99370.13;5009002;28;20144;-83
2023/08/24 08:33:56;;;;;;;35.25;11.75;;;;;;;25.31;62.95;99365.38;5012367;28;20116;-84
2023/08/24 08:36:21;;;;;;;25.25;13.55;;;;;;;25.51;62.46;99368.25;5004028;28;20028;-84
2023/08/24 08:38:47;;;;;;;21.40;11.52;;;;;;;25.60;61.13;99364.81;5011085;28;20057;-83
2023/08/24 08:41:17;;;;;;;18.17;11.43;;;;;;;25.81;60.33;99361.94;4970725;28;1186717;-84
2023/08/24 08:43:43;;;;;;;28.67;18.42;;;;;;;25.92;59.38;99362.50;5010115;28;20103;-84
2023/08/24 08:46:09;;;;;;;20.92;12.75;;;;;;;26.09;58.31;99360.47;5017621;28;20025;-83
2023/08/24 08:48:36;;;;;;;18.42;11.38;;;;;;;26.29;57.77;99363.31;5017117;28;20022;-83
2023/08/24 08:51:02;;;;;;;11.63;8.55;;;;;;;26.35;55.76;99366.44;5006798;28;20413;-83
2023/08/24 08:53:49;;;;;;;9.10;8.18;;;;;;;26.33;55.79;99346.03;5000987;28;20024;-84
2023/08/24 08:56:16;;;;;;;11.00;7.78;;;;;;;26.23;56.20;99359.34;5012708;28;20128;-84
2023/08/24 08:58:46;;;;;;;10.50;7.80;;;;;;;26.33;55.48;99346.81;5011121;28;20095;-83
2023/08/24 09:01:12;;;;;;;;;;;;;;;26.44;55.54;99360.91;5016600;28;20102;-84
2023/08/24 09:03:39;;;;;;;13.50;7.97;;;;;;;26.32;55.85;99356.69;5009476;28;19917;-85
2023/08/24 09:06:04;;;;;;;13.82;7.95;;;;;;;26.35;56.79;99360.72;5031478;28;20171;-84
2023/08/24 09:08:31;;;;;;;24.88;16.92;;;;;;;26.62;58.71;99356.78;5010660;28;20108;-84
2023/08/24 09:10:58;;;;;;;13.35;8.18;;;;;;;26.73;57.89;99365.13;5025568;28;20033;-84
2023/08/24 09:13:24;;;;;;;13.77;7.13;;;;;;;26.58;58.05;99362.59;5014845;28;20074;-85
2023/08/24 09:15:53;;;;;;;13.27;7.57;;;;;;;26.44;60.73;99337.16;5014647;28;20124;-84
2023/08/24 09:18:19;;;;;;;22.33;14.57;;;;;;;27.00;58.69;99330.38;5007369;28;20507;-84
2023/08/24 09:20:47;;;;;;;19.20;9.45;;;;;;;27.58;59.09;99348.88;4999135;28;20025;-83
2023/08/24 09:23:20;;;;;;;11.60;7.20;;;;;;;27.30;58.25;99336.94;5007623;28;20158;-84
2023/08/24 09:25:49;;;;;;;14.43;8.07;;;;;;;27.08;59.23;99345.34;5004467;28;20024;-82
2023/08/24 09:28:23;;;;;;;62.47;39.05;;;;;;;27.12;58.54;99342.38;5011080;28;20025;-84
2023/08/24 09:30:53;;;;;;;36.30;21.95;;;;;;;27.27;60.00;99326.38;5005027;28;20022;-85
2023/08/24 09:33:18;;;;;;;37.53;21.45;;;;;;;27.62;56.74;99334.41;4995537;28;20511;-84
2023/08/24 09:35:44;;;;;;;46.97;26.00;;;;;;;27.82;58.21;99339.16;5000883;28;20022;-83
2023/08/24 09:38:21;;;;;;;32.92;18.13;;;;;;;28.06;55.36;99338.84;5008877;28;20029;-84
2023/08/24 09:40:51;;;;;;;19.42;11.15;;;;;;;28.21;55.88;99327.69;5016163;28;20085;-83
2023/08/24 09:43:16;;;;;;;22.98;16.02;;;;;;;28.51;53.77;99319.75;5007873;28;20056;-84
2023/08/24 09:45:56;;;;;;;36.55;19.75;;;;;;;28.50;54.39;99329.63;5009884;28;20116;-83
2023/08/24 09:48:22;;;;;;;15.07;9.98;;;;;;;28.70;53.62;99335.13;5016378;28;20022;-85
2023/08/24 09:50:50;;;;;;;25.23;14.63;;;;;;;28.95;55.89;99333.47;5007177;28;20512;-84
2023/08/24 09:53:24;;;;;;;16.20;12.23;;;;;;;29.06;53.40;99321.53;5009917;28;20412;-85
2023/08/24 09:55:59;;;;;;;16.58;8.52;;;;;;;28.73;53.54;99332.13;5012308;28;20568;-83
2023/08/24 09:58:26;;;;;;;13.85;8.27;;;;;;;28.51;51.97;99319.75;5011513;28;20036;-84
2023/08/24 10:00:52;;;;;;;14.95;9.07;;;;;;;28.39;51.90;99322.16;5012216;28;20032;-84
2023/08/24 10:03:25;;;;;;;19.88;9.13;;;;;;;28.51;50.99;99329.16;5014756;28;20025;-84
2023/08/24 10:05:57;;;;;;;10.40;8.80;;;;;;;28.73;50.55;99323.50;5007026;28;20037;-88
2023/08/24 10:08:36;;;;;;;17.20;8.55;;;;;;;28.96;48.69;99306.28;5017180;28;20022;-86
2023/08/24 10:11:01;;;;;;;16.27;8.55;;;;;;;29.07;48.59;99291.50;5024443;28;20059;-85
2023/08/24 10:13:41;;;;;;;11.98;9.10;;;;;;;29.20;46.87;99289.38;5014327;28;20060;-86
2023/08/24 10:16:08;;;;;;;10.93;8.48;;;;;;;29.37;46.63;99284.19;5013183;28;20378;-85
2023/08/24 10:18:34;;;;;;;12.48;8.73;;;;;;;29.83;45.97;99286.56;5013204;28;20579;-86
2023/08/24 10:21:00;;;;;;;16.38;9.35;;;;;;;30.27;45.58;99290.56;5014365;28;20025;-85
2023/08/24 10:23:29;;;;;;;9.65;7.82;;;;;;;30.74;45.27;99288.63;5013333;28;20055;-86
2023/08/24 10:25:55;;;;;;;20.05;8.20;;;;;;;31.20;43.36;99287.81;5008881;28;20025;-86
2023/08/24 10:28:23;;;;;;;11.95;7.78;;;;;;;31.32;41.77;99274.50;5031874;28;20053;-85
2023/08/24 10:30:49;;;;;;;8.55;7.45;;;;;;;31.18;40.24;99275.94;5011002;28;20489;-86
2023/08/24 10:33:16;;;;;;;7.47;6.68;;;;;;;31.31;39.70;99275.00;5006281;28;20025;-87
2023/08/24 10:35:43;;;;;;;15.18;7.40;;;;;;;31.37;39.38;99261.47;5010689;28;20033;-86
2023/08/24 10:38:27;;;;;;;10.82;7.18;;;;;;;31.30;40.62;99274.16;5011696;28;20385;-87
2023/08/24 10:40:54;;;;;;;8.57;6.88;;;;;;;31.32;39.15;99267.91;5006171;28;20068;-86
2023/08/24 10:43:20;;;;;;;8.32;6.88;;;;;;;31.19;39.11;99254.44;5013216;28;20111;-87
2023/08/24 10:45:59;;;;;;;12.77;6.70;;;;;;;31.24;39.78;99250.91;5031152;28;20021;-87
2023/08/24 10:48:26;;;;;;;17.75;6.30;;;;;;;31.41;39.46;99264.22;5013866;28;20510;-88
2023/08/24 10:51:13;;;;;;;11.82;6.80;;;;;;;31.76;37.19;99260.88;5013119;28;20029;-87
2023/08/24 10:53:46;;;;;;;7.65;6.40;;;;;;;31.91;37.28;99258.91;5013933;28;20027;-87
2023/08/24 10:56:15;;;;;;;11.80;7.07;;;;;;;32.13;36.35;99259.97;5011537;28;20030;-88
2023/08/24 10:58:41;;;;;;;;;;;;;;;32.32;36.33;99258.53;5009319;28;20037;-87
2023/08/24 11:01:06;;;;;;;9.68;6.15;;;;;;;32.49;36.50;99238.69;5012017;28;20369;-87
2023/08/24 11:03:33;;;;;;;15.38;7.13;;;;;;;32.79;34.62;99240.88;5011281;28;20030;-87
2023/08/24 11:06:00;;;;;;;11.20;6.38;;;;;;;32.96;33.50;99241.22;5012579;28;20358;-86
2023/08/24 11:08:45;;;;;;;7.20;6.50;;;;;;;32.97;33.89;99237.03;5007982;28;20471;-87
2023/08/24 11:11:26;;;;;;;15.27;6.90;;;;;;;33.07;34.11;99234.06;5003097;28;20045;-87
2023/08/24 11:14:29;;;;;;;9.05;6.30;;;;;;;33.06;32.94;99221.66;5009309;28;20033;-86
2023/08/24 11:17:00;;;;;;;7.05;6.35;;;;;;;33.18;31.33;99209.00;4954641;28;20037;-86
2023/08/24 11:19:26;;;;;;;38.22;8.40;;;;;;;33.30;32.27;99203.38;5004446;28;20458;-86